Time;durP1;ratioP1;P1;durP2;ratioP2;P2;SDS_P1;SDS_P2;PMS_P1;PMS_P2;Temp;Humidity;BMP_temperature;BMP_pressure;BME280_temperature;BME280_humidity;BME280_pressure;Samples;Min_cycle;Max_cycle;Signal;HPM_P1;HPM_P2
2022/04/05 00:00:57;;;;;;;4.05;1.50;;;19.80;52.50;;;;;;5091088;28;20097;-70
2022/04/05 00:03:23;;;;;;;4.05;1.60;;;19.80;52.60;;;;;;5092660;28;20123;-70
2022/04/05 00:05:48;;;;;;;4.13;1.48;;;19.80;52.50;;;;;;5092827;28;20072;-70
2022/04/05 00:08:17;;;;;;;3.92;1.30;;;19.80;52.50;;;;;;5086269;28;20116;-69
2022/04/05 00:10:43;;;;;;;;;;;19.80;52.50;;;;;;5088252;28;20496;-70
2022/04/05 00:13:09;;;;;;;3.85;1.40;;;19.80;52.40;;;;;;5091461;28;19920;-70
2022/04/05 00:15:35;;;;;;;3.28;1.17;;;19.80;52.50;;;;;;5093211;28;20043;-70
2022/04/05 00:18:01;;;;;;;3.22;1.50;;;19.80;52.50;;;;;;5091661;28;20064;-70
2022/04/05 00:20:27;;;;;;;2.80;1.40;;;19.70;52.40;;;;;;5092166;28;20406;-69
2022/04/05 00:22:54;;;;;;;3.67;1.15;;;19.80;52.50;;;;;;5092372;28;20040;-70
2022/04/05 00:25:20;;;;;;;3.67;1.38;;;19.80;52.90;;;;;;5093047;28;20547;-69
2022/04/05 00:27:46;;;;;;;2.60;1.20;;;19.80;52.50;;;;;;5090501;28;20174;-70
2022/04/05 00:30:12;;;;;;;3.00;1.40;;;19.80;52.50;;;;;;5080935;28;20123;-70
2022/04/05 00:32:38;;;;;;;2.47;1.23;;;19.80;52.50;;;;;;5091353;28;20123;-69
2022/04/05 00:35:05;;;;;;;3.45;1.33;;;19.80;52.50;;;;;;5088088;28;20931;-70
2022/04/05 00:37:31;;;;;;;2.25;1.13;;;19.70;52.40;;;;;;5081095;28;20073;-70
2022/04/05 00:39:56;;;;;;;2.80;1.20;;;19.70;52.40;;;;;;5079622;28;20729;-70
2022/04/05 00:42:22;;;;;;;3.22;1.38;;;19.70;52.40;;;;;;5091598;28;20039;-69
2022/04/05 00:44:48;;;;;;;2.95;1.30;;;19.70;52.50;;;;;;5092568;28;20032;-70
2022/04/05 00:47:20;;;;;;;3.85;1.30;;;19.70;52.50;;;;;;5092234;28;20169;-70
2022/04/05 00:49:47;;;;;;;2.42;1.17;;;19.70;52.40;;;;;;5076228;28;20047;-69
2022/04/05 00:52:15;;;;;;;3.30;1.10;;;19.70;52.50;;;;;;5092399;28;20498;-70
2022/04/05 00:54:43;;;;;;;;;;;19.70;52.50;;;;;;5084704;28;20036;-70
2022/04/05 00:57:12;;;;;;;5.03;1.67;;;19.70;52.40;;;;;;5092894;28;19968;-70
2022/04/05 00:59:41;;;;;;;;;;;19.70;52.40;;;;;;5091653;28;20613;-70
2022/04/05 01:02:12;;;;;;;2.25;1.08;;;19.70;52.40;;;;;;5088728;28;19920;-70
2022/04/05 01:04:42;;;;;;;2.28;1.10;;;19.70;52.40;;;;;;5091387;28;20052;-70
2022/04/05 01:07:14;;;;;;;3.25;1.30;;;19.70;52.40;;;;;;5080785;28;20583;-70
2022/04/05 01:09:40;;;;;;;2.55;1.02;;;19.70;52.40;;;;;;5072352;28;20113;-70
2022/04/05 01:12:08;;;;;;;2.45;1.20;;;19.70;53.20;;;;;;5072758;28;20095;-70
2022/04/05 01:14:34;;;;;;;2.57;1.20;;;19.70;52.40;;;;;;5091045;28;20051;-70
2022/04/05 01:17:00;;;;;;;1.90;0.90;;;19.70;52.40;;;;;;5078247;28;20052;-70
2022/04/05 01:19:27;;;;;;;3.50;1.20;;;19.70;52.40;;;;;;5087576;28;20040;-69
2022/04/05 01:21:53;;;;;;;2.47;1.10;;;19.70;52.40;;;;;;5088059;28;20040;-70
2022/04/05 01:24:18;;;;;;;2.17;0.90;;;19.70;52.40;;;;;;5087643;28;20118;-70
2022/04/05 01:26:48;;;;;;;3.67;1.20;;;19.70;52.40;;;;;;5084842;28;20093;-70
2022/04/05 01:29:15;;;;;;;3.30;1.10;;;19.70;52.40;;;;;;5078770;28;20090;-70
2022/04/05 01:31:50;;;;;;;2.38;0.93;;;19.70;53.20;;;;;;5091063;28;20058;-69
2022/04/05 01:34:20;;;;;;;2.58;1.00;;;19.70;52.40;;;;;;5089903;28;20398;-70
2022/04/05 01:36:51;;;;;;;1.95;0.90;;;19.70;52.40;;;;;;5081785;28;20479;-70
2022/04/05 01:39:18;;;;;;;1.75;0.90;;;19.70;52.40;;;;;;5085614;28;20065;-70
2022/04/05 01:41:44;;;;;;;2.80;1.10;;;19.70;52.80;;;;;;5090343;28;20138;-70
2022/04/05 01:44:12;;;;;;;2.33;0.95;;;19.70;52.30;;;;;;5089965;28;20040;-70
2022/04/05 01:46:38;;;;;;;2.47;1.25;;;19.70;52.40;;;;;;5090337;28;20036;-69
2022/04/05 01:49:08;;;;;;;3.60;1.23;;;19.70;52.40;;;;;;5079898;28;20082;-70
2022/04/05 01:51:37;;;;;;;1.67;0.85;;;19.70;52.30;;;;;;5084581;28;20095;-70
2022/04/05 01:54:08;;;;;;;2.33;1.13;;;19.60;52.20;;;;;;5088915;28;20036;-68
2022/04/05 01:56:40;;;;;;;2.05;0.88;;;19.70;52.30;;;;;;5079415;28;20059;-70
2022/04/05 01:59:06;;;;;;;1.25;0.75;;;19.60;52.30;;;;;;5084653;28;20032;-70
2022/04/05 02:01:31;;;;;;;2.75;0.80;;;19.70;52.30;;;;;;5090090;28;20036;-71
2022/04/05 02:03:57;;;;;;;2.97;1.10;;;19.70;52.30;;;;;;5090630;28;20040;-70
2022/04/05 02:06:24;;;;;;;2.35;0.98;;;19.70;52.30;;;;;;5091875;28;20067;-70
2022/04/05 02:08:50;;;;;;;1.33;0.70;;;19.70;52.30;;;;;;5090256;28;20147;-70
2022/04/05 02:11:16;;;;;;;2.30;0.93;;;19.70;52.40;;;;;;5070901;28;20436;-72
2022/04/05 02:13:42;;;;;;;2.80;1.02;;;19.60;52.30;;;;;;5079911;28;20036;-70
2022/04/05 02:16:08;;;;;;;2.83;0.80;;;19.60;52.30;;;;;;5091239;28;20512;-70
2022/04/05 02:18:37;;;;;;;2.10;1.10;;;19.60;52.30;;;;;;5087276;28;20475;-70
2022/04/05 02:21:05;;;;;;;1.80;0.80;;;19.60;52.40;;;;;;5075948;28;20090;-70
2022/04/05 02:23:31;;;;;;;2.05;0.80;;;19.60;52.40;;;;;;5089920;28;20123;-70
2022/04/05 02:25:57;;;;;;;1.88;0.90;;;19.60;52.40;;;;;;5088126;28;20067;-70
2022/04/05 02:28:23;;;;;;;4.30;0.75;;;19.60;52.40;;;;;;5090243;28;20048;-70
2022/04/05 02:30:49;;;;;;;2.25;1.00;;;19.60;52.40;;;;;;5089025;28;20090;-70
2022/04/05 02:33:15;;;;;;;1.55;0.75;;;19.60;52.40;;;;;;5096796;28;20063;-71
2022/04/05 02:35:43;;;;;;;2.13;0.80;;;19.60;52.40;;;;;;5090467;28;20063;-70
2022/04/05 02:38:09;;;;;;;2.88;1.05;;;19.60;52.40;;;;;;5090478;28;20129;-71
2022/04/05 02:40:35;;;;;;;2.85;1.00;;;19.60;52.50;;;;;;5090018;28;20032;-70
2022/04/05 02:43:00;;;;;;;1.65;0.90;;;19.60;52.50;;;;;;5089903;28;20047;-70
2022/04/05 02:45:26;;;;;;;2.17;0.80;;;19.60;52.50;;;;;;5089212;28;20036;-71
2022/04/05 02:47:52;;;;;;;2.95;0.82;;;19.60;52.50;;;;;;5074840;28;20071;-72
2022/04/05 02:50:18;;;;;;;3.13;0.90;;;19.60;52.40;;;;;;5088967;28;20194;-71
2022/04/05 02:52:48;;;;;;;4.47;0.90;;;19.60;52.50;;;;;;5090278;28;20076;-71
2022/04/05 02:55:14;;;;;;;1.67;0.65;;;19.60;52.50;;;;;;5081406;28;20044;-70
2022/04/05 02:57:42;;;;;;;5.22;1.00;;;19.60;52.50;;;;;;5089814;28;20552;-70
2022/04/05 03:00:11;;;;;;;2.80;0.88;;;19.60;52.50;;;;;;5090628;28;20585;-71
2022/04/05 03:02:37;;;;;;;2.10;0.80;;;19.60;52.50;;;;;;5088117;28;20509;-71
2022/04/05 03:05:06;;;;;;;3.15;1.00;;;19.60;52.50;;;;;;5089782;28;20047;-70
2022/04/05 03:07:34;;;;;;;1.55;0.70;;;19.60;52.40;;;;;;5090190;28;20047;-70
2022/04/05 03:10:01;;;;;;;1.85;0.68;;;19.60;52.40;;;;;;5070865;28;20071;-71
2022/04/05 03:12:27;;;;;;;3.65;1.02;;;19.60;52.40;;;;;;5070502;28;20049;-70
2022/04/05 03:14:53;;;;;;;2.72;0.80;;;19.60;52.40;;;;;;5085335;28;20471;-71
2022/04/05 03:17:19;;;;;;;2.00;0.70;;;19.60;52.50;;;;;;5090244;28;20406;-71
2022/04/05 03:19:44;;;;;;;1.83;0.73;;;19.60;52.40;;;;;;5073029;28;20036;-71
2022/04/05 03:22:11;;;;;;;1.75;0.70;;;19.60;52.40;;;;;;5083935;28;20043;-71
2022/04/05 03:24:37;;;;;;;3.45;0.80;;;19.60;52.40;;;;;;5119385;28;20059;-71
2022/04/05 03:27:03;;;;;;;1.77;0.70;;;19.60;52.40;;;;;;5076881;28;20059;-72
2022/04/05 03:29:30;;;;;;;1.55;0.77;;;19.60;52.40;;;;;;5084800;28;20097;-71
2022/04/05 03:31:55;;;;;;;1.98;0.65;;;19.60;52.40;;;;;;5089239;28;20044;-71
2022/04/05 03:34:21;;;;;;;1.15;0.50;;;19.60;52.40;;;;;;5088766;28;20043;-71
2022/04/05 03:36:47;;;;;;;2.05;0.77;;;19.60;52.40;;;;;;5088498;28;20044;-71
2022/04/05 03:39:14;;;;;;;2.95;0.82;;;19.60;52.50;;;;;;5085431;28;20032;-71
2022/04/05 03:41:41;;;;;;;2.40;0.73;;;19.60;52.40;;;;;;5090302;28;20042;-71
2022/04/05 03:44:07;;;;;;;1.95;0.73;;;19.60;52.40;;;;;;5088192;28;20075;-71
2022/04/05 03:46:33;;;;;;;1.90;0.70;;;19.60;52.40;;;;;;5089929;28;20048;-71
2022/04/05 03:48:59;;;;;;;2.75;0.70;;;19.50;52.30;;;;;;5088190;28;20490;-71
2022/04/05 03:51:26;;;;;;;1.70;0.82;;;19.60;52.40;;;;;;5089852;28;20442;-71
2022/04/05 03:53:51;;;;;;;2.88;0.90;;;19.60;52.30;;;;;;5089288;28;20051;-71
2022/04/05 03:56:19;;;;;;;1.85;0.60;;;19.60;52.40;;;;;;5123566;28;20131;-71
2022/04/05 03:58:44;;;;;;;1.80;0.70;;;19.60;52.40;;;;;;5083751;28;20048;-71
2022/04/05 04:01:10;;;;;;;2.95;0.70;;;19.60;52.30;;;;;;5090182;28;20040;-71
2022/04/05 04:03:36;;;;;;;2.10;0.60;;;19.60;52.30;;;;;;5117932;27;20102;-71
2022/04/05 04:06:01;;;;;;;2.15;0.80;;;19.50;52.30;;;;;;5072315;28;20055;-71
2022/04/05 04:08:27;;;;;;;2.38;0.70;;;19.60;52.30;;;;;;5081934;28;20036;-70
2022/04/05 04:10:53;;;;;;;1.25;0.50;;;19.60;52.30;;;;;;5093238;28;20109;-71
2022/04/05 04:13:19;;;;;;;1.40;0.60;;;19.50;52.30;;;;;;5090269;28;20067;-71
2022/04/05 04:15:45;;;;;;;1.15;0.60;;;19.50;52.30;;;;;;5073974;28;20037;-71
2022/04/05 04:18:11;;;;;;;1.63;0.75;;;19.50;52.30;;;;;;5076551;28;20077;-70
2022/04/05 04:20:42;;;;;;;2.15;0.60;;;19.50;52.30;;;;;;5085427;28;20043;-71
2022/04/05 04:23:11;;;;;;;2.72;0.65;;;19.50;52.30;;;;;;5083064;28;20048;-71
2022/04/05 04:25:37;;;;;;;2.72;0.90;;;19.50;52.30;;;;;;5073783;28;20048;-71
2022/04/05 04:28:07;;;;;;;2.38;0.90;;;19.50;52.30;;;;;;5076450;28;20119;-71
2022/04/05 04:30:34;;;;;;;1.80;0.70;;;19.50;52.30;;;;;;5092115;28;20471;-71
2022/04/05 04:33:01;;;;;;;1.52;0.60;;;19.50;52.30;;;;;;5091513;28;20048;-70
2022/04/05 04:35:28;;;;;;;1.73;0.80;;;19.50;52.30;;;;;;5119688;27;20044;-71
2022/04/05 04:37:54;;;;;;;2.53;0.77;;;19.50;52.20;;;;;;5091991;28;20047;-70
2022/04/05 04:40:21;;;;;;;2.03;0.88;;;19.50;52.20;;;;;;5092278;28;20130;-71
2022/04/05 04:42:47;;;;;;;2.53;0.70;;;19.50;52.20;;;;;;5093065;28;20078;-70
2022/04/05 04:45:13;;;;;;;2.58;0.60;;;19.50;52.20;;;;;;5091339;28;20036;-70
2022/04/05 04:47:39;;;;;;;1.33;0.50;;;19.50;52.20;;;;;;5092353;28;20043;-70
2022/04/05 04:50:06;;;;;;;3.08;0.60;;;19.60;52.20;;;;;;5090488;28;20079;-71
2022/04/05 04:52:32;;;;;;;1.45;0.60;;;19.50;52.10;;;;;;5091899;28;20055;-71
2022/04/05 04:54:58;;;;;;;1.58;0.60;;;19.60;52.20;;;;;;5092303;28;20672;-70
2022/04/05 04:57:25;;;;;;;2.25;0.73;;;19.60;52.20;;;;;;5090594;28;20048;-71
2022/04/05 04:59:52;;;;;;;1.55;0.70;;;19.60;52.20;;;;;;5089601;28;20028;-71
2022/04/05 05:02:18;;;;;;;2.38;0.90;;;19.60;52.10;;;;;;5092731;28;20071;-71
2022/04/05 05:04:44;;;;;;;3.17;0.73;;;19.60;52.10;;;;;;5091195;28;20052;-70
2022/04/05 05:07:10;;;;;;;2.58;0.80;;;19.60;52.10;;;;;;5092449;28;20043;-71
2022/04/05 05:09:36;;;;;;;1.80;0.60;;;19.60;52.10;;;;;;5091492;28;20044;-71
2022/04/05 05:12:02;;;;;;;1.65;0.70;;;19.60;52.10;;;;;;5091474;28;20028;-71
2022/04/05 05:14:30;;;;;;;1.77;0.63;;;19.60;52.10;;;;;;5090707;28;20815;-71
2022/04/05 05:16:55;;;;;;;1.42;0.55;;;19.60;52.10;;;;;;5092280;28;20035;-71
2022/04/05 05:19:21;;;;;;;1.67;0.50;;;19.60;52.10;;;;;;5088965;28;20036;-71
2022/04/05 05:21:48;;;;;;;1.60;0.60;;;19.60;52.00;;;;;;5091601;28;20071;-71
2022/04/05 05:24:14;;;;;;;2.17;0.70;;;19.60;52.00;;;;;;5088667;28;20040;-71
2022/04/05 05:26:40;;;;;;;2.22;0.70;;;19.60;52.00;;;;;;5092181;28;20047;-71
2022/04/05 05:29:05;;;;;;;2.17;0.70;;;19.60;52.00;;;;;;5091080;28;20429;-71
2022/04/05 05:31:31;;;;;;;4.25;0.85;;;19.60;52.00;;;;;;5090069;28;20502;-71
2022/04/05 05:33:57;;;;;;;1.17;0.50;;;19.60;52.70;;;;;;5090844;28;20044;-70
2022/04/05 05:36:23;;;;;;;2.42;0.63;;;19.60;52.00;;;;;;5091687;28;20113;-71
2022/04/05 05:38:49;;;;;;;3.42;0.90;;;19.60;52.00;;;;;;5084286;28;20075;-71
2022/04/05 05:41:15;;;;;;;1.88;0.60;;;19.60;52.00;;;;;;5086182;28;20494;-71
2022/04/05 05:43:45;;;;;;;3.58;0.70;;;19.60;52.00;;;;;;5091314;28;20054;-71
2022/04/05 05:46:12;;;;;;;3.38;0.88;;;19.60;52.00;;;;;;5091718;28;20054;-71
2022/04/05 05:48:37;;;;;;;1.52;0.70;;;19.60;52.00;;;;;;5089917;28;20054;-71
2022/04/05 05:51:03;;;;;;;2.42;0.70;;;19.60;52.00;;;;;;5091134;28;20044;-71
2022/04/05 05:53:29;;;;;;;1.63;0.80;;;19.60;51.90;;;;;;5085756;28;20098;-71
2022/04/05 05:55:54;;;;;;;1.38;0.60;;;19.60;52.00;;;;;;5089749;28;20032;-71
2022/04/05 05:58:20;;;;;;;1.80;0.70;;;19.60;52.00;;;;;;5086409;28;20033;-71
2022/04/05 06:00:46;;;;;;;4.50;1.00;;;19.60;51.90;;;;;;5080930;28;20419;-71
2022/04/05 06:03:12;;;;;;;2.38;0.70;;;19.60;52.00;;;;;;5088498;28;20039;-71
2022/04/05 06:05:38;;;;;;;1.73;0.52;;;19.60;52.00;;;;;;5088932;28;20074;-71
2022/04/05 06:08:07;;;;;;;3.15;0.60;;;19.60;51.90;;;;;;5071279;28;20825;-71
2022/04/05 06:10:32;;;;;;;2.47;0.80;;;19.60;51.90;;;;;;5086665;28;20044;-71
2022/04/05 06:12:58;;;;;;;1.80;0.85;;;19.60;51.90;;;;;;5078532;28;20040;-69
2022/04/05 06:15:25;;;;;;;2.45;0.80;;;19.60;52.00;;;;;;5084324;28;20035;-70
2022/04/05 06:17:53;;;;;;;2.42;0.70;;;19.60;52.00;;;;;;5088264;28;20090;-77
2022/04/05 06:20:21;;;;;;;2.60;0.73;;;19.50;52.00;;;;;;5089651;28;20497;-68
2022/04/05 06:22:53;;;;;;;2.00;0.50;;;19.50;52.10;;;;;;5088120;28;20036;-73
2022/04/05 06:25:28;;;;;;;5.38;1.52;;;19.50;52.20;;;;;;5089379;28;20047;-68
2022/04/05 06:27:56;;;;;;;8.82;0.75;;;19.50;52.40;;;;;;5090297;28;20051;-68
2022/04/05 06:30:21;;;;;;;3.20;0.80;;;19.50;52.50;;;;;;5089611;28;20063;-69
2022/04/05 06:32:48;;;;;;;1.35;0.60;;;19.50;52.60;;;;;;5089856;28;20331;-66
2022/04/05 06:35:15;;;;;;;4.28;0.90;;;19.50;52.70;;;;;;5090407;28;20120;-66
2022/04/05 06:37:44;;;;;;;2.53;0.77;;;19.50;52.90;;;;;;5090958;28;20035;-68
2022/04/05 06:40:11;;;;;;;1.98;0.70;;;19.50;53.00;;;;;;5086428;28;20055;-69
2022/04/05 06:42:41;;;;;;;2.97;0.80;;;19.50;53.10;;;;;;5085870;28;20426;-68
2022/04/05 06:45:10;;;;;;;4.60;0.85;;;19.50;53.30;;;;;;5090022;28;20044;-68
2022/04/05 06:47:37;;;;;;;3.72;0.82;;;19.60;53.40;;;;;;5089759;28;20033;-69
2022/04/05 06:50:05;;;;;;;5.05;0.90;;;19.60;53.40;;;;;;5086192;28;20040;-68
2022/04/05 06:52:30;;;;;;;3.90;0.82;;;19.60;53.40;;;;;;5088683;28;20052;-67
2022/04/05 06:54:56;;;;;;;2.78;0.60;;;19.60;53.50;;;;;;5089780;28;20916;-68
2022/04/05 06:57:22;;;;;;;2.40;0.85;;;19.60;53.50;;;;;;5089582;28;20078;-69
2022/04/05 06:59:48;;;;;;;3.15;0.70;;;19.70;53.50;;;;;;5075918;28;20044;-70
2022/04/05 07:02:14;;;;;;;3.85;0.75;;;19.70;53.50;;;;;;5074628;28;20472;-70
2022/04/05 07:04:40;;;;;;;4.47;0.82;;;19.70;53.50;;;;;;5086297;28;20047;-69
2022/04/05 07:07:06;;;;;;;2.45;0.77;;;19.80;53.50;;;;;;5089765;28;20040;-67
2022/04/05 07:09:31;;;;;;;2.10;0.80;;;19.80;53.50;;;;;;5090092;28;20038;-69
2022/04/05 07:11:57;;;;;;;4.15;0.90;;;19.80;53.50;;;;;;5092479;28;20174;-69
2022/04/05 07:14:23;;;;;;;3.90;0.60;;;19.80;53.40;;;;;;5087630;28;20043;-69
2022/04/05 07:16:48;;;;;;;3.40;0.75;;;19.80;53.40;;;;;;5088780;28;20076;-68
2022/04/05 07:19:14;;;;;;;5.95;0.80;;;19.90;53.50;;;;;;5084568;28;20413;-71
2022/04/05 07:21:40;;;;;;;4.97;0.82;;;19.90;53.40;;;;;;5082712;28;20043;-67
2022/04/05 07:24:06;;;;;;;6.07;0.70;;;19.90;53.40;;;;;;5088242;28;20447;-67
2022/04/05 07:26:31;;;;;;;2.60;0.70;;;19.90;53.40;;;;;;5088001;28;20537;-68
2022/04/05 07:28:57;;;;;;;2.30;0.80;;;20.00;53.50;;;;;;5087551;28;20054;-67
2022/04/05 07:31:23;;;;;;;2.63;0.70;;;20.00;53.60;;;;;;5087182;28;20071;-68
2022/04/05 07:33:48;;;;;;;5.65;0.80;;;20.00;53.70;;;;;;5089929;28;20072;-67
2022/04/05 07:36:14;;;;;;;3.35;0.63;;;20.10;53.70;;;;;;5090228;28;20119;-68
2022/04/05 07:38:39;;;;;;;1.88;0.80;;;20.10;53.70;;;;;;5091510;28;20032;-68
2022/04/05 07:41:05;;;;;;;3.38;0.80;;;20.10;53.80;;;;;;5090193;28;20032;-68
2022/04/05 07:43:33;;;;;;;4.38;0.70;;;20.10;53.70;;;;;;5091523;28;20051;-69
2022/04/05 07:45:59;;;;;;;5.38;0.77;;;20.10;53.70;;;;;;5084099;28;20048;-70
2022/04/05 07:48:29;;;;;;;3.10;0.77;;;20.10;53.60;;;;;;5091330;28;20050;-70
2022/04/05 07:50:56;;;;;;;5.97;0.80;;;20.20;53.60;;;;;;5092727;28;20087;-70
2022/04/05 07:53:22;;;;;;;2.58;0.95;;;20.10;53.50;;;;;;5087525;28;20076;-70
2022/04/05 07:55:47;;;;;;;3.75;0.70;;;20.20;53.50;;;;;;5090812;28;20036;-69
2022/04/05 07:58:13;;;;;;;2.72;0.70;;;20.20;53.40;;;;;;5092211;28;20117;-70
2022/04/05 08:00:39;;;;;;;4.00;0.68;;;20.20;53.40;;;;;;5087938;28;20050;-70
2022/04/05 08:03:05;;;;;;;1.05;0.60;;;20.20;53.40;;;;;;5091640;28;20514;-70
2022/04/05 08:05:31;;;;;;;2.45;0.80;;;20.20;53.40;;;;;;5091985;28;20050;-70
2022/04/05 08:07:56;;;;;;;2.80;0.60;;;20.20;53.30;;;;;;5091921;28;20119;-69
2022/04/05 08:10:22;;;;;;;3.28;0.65;;;20.20;53.30;;;;;;5089958;28;20043;-70
2022/04/05 08:12:49;;;;;;;1.88;0.60;;;20.20;53.20;;;;;;5091556;28;20028;-69
2022/04/05 08:15:22;;;;;;;3.42;0.98;;;20.20;54.00;;;;;;5091509;28;20364;-68
2022/04/05 08:17:50;;;;;;;2.85;0.95;;;20.20;53.20;;;;;;5121831;27;20108;-68
2022/04/05 08:20:16;;;;;;;2.90;0.70;;;20.20;53.10;;;;;;5088694;28;20032;-68
2022/04/05 08:22:43;;;;;;;4.00;0.70;;;20.20;53.00;;;;;;5089300;28;20376;-68
2022/04/05 08:25:11;;;;;;;6.20;0.90;;;20.20;52.90;;;;;;5090265;28;20440;-68
2022/04/05 08:27:37;;;;;;;4.22;1.00;;;20.20;52.90;;;;;;5091546;28;20036;-68
2022/04/05 08:30:04;;;;;;;6.00;0.93;;;20.20;52.90;;;;;;5088364;28;20061;-68
2022/04/05 08:32:30;;;;;;;3.83;0.75;;;20.20;53.00;;;;;;5090515;28;20031;-67
2022/04/05 08:34:56;;;;;;;3.75;0.70;;;20.20;53.00;;;;;;5085088;28;20518;-67
2022/04/05 08:37:25;;;;;;;2.65;0.80;;;20.20;52.80;;;;;;5084947;28;20454;-69
2022/04/05 08:39:50;;;;;;;2.08;0.75;;;20.20;52.50;;;;;;5090903;28;20032;-67
2022/04/05 08:42:16;;;;;;;4.38;0.88;;;20.20;52.30;;;;;;5091525;28;20040;-68
2022/04/05 08:44:43;;;;;;;5.30;0.73;;;20.30;52.40;;;;;;5092357;28;20394;-67
2022/04/05 08:47:12;;;;;;;5.13;0.73;;;20.30;52.40;;;;;;5092234;28;20044;-67
2022/04/05 08:49:38;;;;;;;2.97;0.77;;;20.30;52.50;;;;;;5089380;28;20032;-67
2022/04/05 08:52:05;;;;;;;2.30;0.60;;;20.30;52.60;;;;;;5092256;28;20069;-68
2022/04/05 08:54:31;;;;;;;5.50;0.80;;;20.30;52.60;;;;;;5090119;28;20043;-69
2022/04/05 08:56:57;;;;;;;2.33;0.85;;;20.30;52.70;;;;;;5092196;28;20040;-67
2022/04/05 08:59:23;;;;;;;5.15;0.68;;;20.30;52.60;;;;;;5091762;28;20499;-69
2022/04/05 09:01:53;;;;;;;1.40;0.63;;;20.30;52.60;;;;;;5092370;28;20072;-70
2022/04/05 09:04:19;;;;;;;3.80;0.70;;;20.40;52.70;;;;;;5091187;28;20525;-69
2022/04/05 09:06:46;;;;;;;5.45;1.00;;;20.40;52.70;;;;;;5073972;28;20051;-67
2022/04/05 09:09:14;;;;;;;2.77;0.70;;;20.50;52.60;;;;;;5094674;28;20469;-67
2022/04/05 09:11:53;;;;;;;2.05;0.70;;;20.50;52.70;;;;;;5090940;28;20031;-68
2022/04/05 09:14:28;;;;;;;;;;;20.50;52.60;;;;;;5085030;28;20044;-68
2022/04/05 09:17:12;;;;;;;3.15;0.75;;;20.50;52.30;;;;;;5089962;28;19969;-67
2022/04/05 09:19:45;;;;;;;2.45;0.80;;;20.50;52.30;;;;;;5086094;28;20066;-67
2022/04/05 09:22:11;;;;;;;2.10;0.70;;;20.50;52.30;;;;;;5089770;28;20043;-68
2022/04/05 09:24:39;;;;;;;5.03;0.60;;;20.50;52.20;;;;;;5088116;28;20042;-69
2022/04/05 09:27:06;;;;;;;1.98;0.68;;;20.50;52.10;;;;;;5089825;28;20367;-67
2022/04/05 09:29:43;;;;;;;3.60;0.85;;;20.50;52.10;;;;;;5089691;28;20123;-68
2022/04/05 09:32:10;;;;;;;2.53;0.60;;;20.50;52.00;;;;;;5088743;28;20032;-68
2022/04/05 09:34:51;;;;;;;4.03;0.68;;;20.50;52.10;;;;;;5088818;28;20119;-67
2022/04/05 09:37:25;;;;;;;2.33;0.70;;;20.50;52.00;;;;;;5088166;28;20372;-67
2022/04/05 09:39:51;;;;;;;3.22;0.63;;;20.50;51.90;;;;;;5088053;28;20042;-66
2022/04/05 09:42:17;;;;;;;2.75;0.70;;;20.50;51.70;;;;;;5089830;28;20036;-67
2022/04/05 09:44:43;;;;;;;3.88;0.80;;;20.50;51.50;;;;;;5090403;28;20398;-67
2022/04/05 09:47:21;;;;;;;4.03;0.70;;;20.50;51.20;;;;;;5089753;28;20040;-67
2022/04/05 09:49:48;;;;;;;3.80;0.63;;;20.50;50.90;;;;;;5088597;28;20051;-67
2022/04/05 09:52:33;;;;;;;3.67;0.88;;;20.50;50.90;;;;;;5088337;28;21773;-67
2022/04/05 09:55:13;;;;;;;2.35;0.60;;;20.50;50.70;;;;;;5083479;28;20043;-67
2022/04/05 09:57:39;;;;;;;1.08;0.63;;;20.50;50.70;;;;;;5088706;28;20036;-67
2022/04/05 10:00:25;;;;;;;2.70;0.70;;;20.50;50.80;;;;;;5089411;28;20577;-67
2022/04/05 10:03:02;;;;;;;3.92;0.88;;;20.50;50.80;;;;;;5083902;28;20245;-67
2022/04/05 10:05:29;;;;;;;3.92;0.90;;;20.50;50.80;;;;;;5075893;28;20050;-68
2022/04/05 10:07:56;;;;;;;1.75;0.60;;;20.50;50.90;;;;;;5088773;28;20407;-67
2022/04/05 10:10:23;;;;;;;1.52;0.60;;;20.50;50.90;;;;;;5086265;28;20071;-67
2022/04/05 10:12:50;;;;;;;1.90;0.70;;;20.50;50.90;;;;;;5087363;28;20101;-67
2022/04/05 10:15:16;;;;;;;2.50;0.90;;;20.60;51.00;;;;;;5088864;28;20039;-67
2022/04/05 10:17:47;;;;;;;1.90;0.85;;;20.50;50.90;;;;;;5087451;28;20491;-68
2022/04/05 10:20:15;;;;;;;4.90;0.80;;;20.50;50.90;;;;;;5118149;27;20059;-68
2022/04/05 10:22:42;;;;;;;1.67;0.77;;;20.60;50.90;;;;;;5088980;28;20070;-68
2022/04/05 10:25:08;;;;;;;2.15;0.60;;;20.50;50.80;;;;;;5084474;28;20080;-67
2022/04/05 10:27:35;;;;;;;1.58;0.60;;;20.50;50.70;;;;;;5087941;28;20044;-67
2022/04/05 10:30:16;;;;;;;5.47;0.90;;;20.60;50.90;;;;;;5088199;28;20055;-67
2022/04/05 10:33:14;;;;;;;2.50;0.70;;;20.60;50.90;;;;;;5088469;28;20036;-67
2022/04/05 10:35:50;;;;;;;3.38;0.93;;;20.60;50.90;;;;;;5086849;28;20032;-67
2022/04/05 10:38:18;;;;;;;1.92;0.68;;;20.60;50.90;;;;;;5088646;28;20123;-67
2022/04/05 10:41:12;;;;;;;1.50;0.73;;;20.60;50.90;;;;;;5088313;28;20048;-67
2022/04/05 10:43:39;;;;;;;8.50;1.25;;;20.60;50.90;;;;;;5088117;28;20051;-67
2022/04/05 10:46:05;;;;;;;2.10;0.70;;;20.60;50.90;;;;;;5088044;28;20403;-67
2022/04/05 10:48:34;;;;;;;2.63;0.70;;;20.60;51.00;;;;;;5087633;28;20044;-69
2022/04/05 10:51:00;;;;;;;1.85;0.82;;;20.60;50.90;;;;;;5086713;28;20174;-68
2022/04/05 10:53:37;;;;;;;1.73;0.80;;;20.70;51.10;;;;;;5085808;28;20482;-68
2022/04/05 10:56:07;;;;;;;2.05;0.70;;;20.70;51.00;;;;;;5086733;28;20064;-68
2022/04/05 10:58:34;;;;;;;2.25;0.80;;;20.70;51.00;;;;;;5080723;28;20075;-66
2022/04/05 11:01:20;;;;;;;3.60;0.77;;;20.70;51.00;;;;;;5084308;28;20123;-66
2022/04/05 11:04:18;;;;;;;2.38;0.80;;;20.70;51.10;;;;;;5085473;28;20047;-65
2022/04/05 11:07:02;;;;;;;3.65;0.65;;;20.70;51.20;;;;;;5086105;28;20525;-66
2022/04/05 11:09:48;;;;;;;4.20;0.93;;;20.70;51.30;;;;;;5089118;28;20411;-66
2022/04/05 11:12:26;;;;;;;1.83;0.82;;;20.70;51.40;;;;;;5090177;28;20868;-66
2022/04/05 11:14:57;;;;;;;5.57;0.93;;;20.80;51.50;;;;;;5090662;28;20036;-63
2022/04/05 11:17:26;;;;;;;2.47;0.80;;;20.80;51.50;;;;;;5087411;28;20139;-66
2022/04/05 11:19:55;;;;;;;4.85;0.90;;;20.80;51.50;;;;;;5090091;28;20069;-67
2022/04/05 11:22:21;;;;;;;2.88;0.70;;;20.80;51.50;;;;;;5092526;28;21660;-67
2022/04/05 11:25:04;;;;;;;5.13;0.90;;;20.80;51.40;;;;;;5091297;28;20047;-67
2022/04/05 11:27:47;;;;;;;2.05;0.95;;;20.80;51.40;;;;;;5093744;28;20032;-66
2022/04/05 11:30:28;;;;;;;2.40;1.02;;;20.80;51.30;;;;;;5087662;28;20047;-67
2022/04/05 11:33:09;;;;;;;4.78;0.93;;;20.80;51.30;;;;;;5082671;28;20048;-67
2022/04/05 11:35:36;;;;;;;2.45;1.00;;;20.90;51.30;;;;;;5092621;28;20040;-67
2022/04/05 11:38:03;;;;;;;4.50;1.00;;;20.90;51.30;;;;;;5089364;28;20075;-66
2022/04/05 11:40:32;;;;;;;5.05;1.05;;;20.90;51.30;;;;;;5089375;28;20058;-67
2022/04/05 11:43:02;;;;;;;2.47;0.80;;;20.90;51.40;;;;;;5092225;28;20142;-68
2022/04/05 11:45:29;;;;;;;2.17;0.90;;;20.90;51.50;;;;;;5093931;28;20089;-67
2022/04/05 11:47:55;;;;;;;2.13;1.00;;;20.90;51.50;;;;;;5093060;28;20437;-67
2022/04/05 11:50:22;;;;;;;4.22;1.13;;;20.90;51.50;;;;;;5088484;28;20043;-67
2022/04/05 11:52:48;;;;;;;1.98;0.80;;;20.90;51.60;;;;;;5093007;28;20040;-67
2022/04/05 11:58:06;;;;;;;2.67;1.17;;;20.90;51.60;;;;;;5093267;28;20036;-67
2022/04/05 12:00:33;;;;;;;2.90;1.08;;;20.90;51.70;;;;;;5091100;28;20146;-67
2022/04/05 12:03:10;;;;;;;3.40;0.90;;;20.80;51.70;;;;;;5092208;28;20053;-66
2022/04/05 12:05:44;;;;;;;1.52;0.75;;;20.80;51.70;;;;;;5087979;28;20114;-68
2022/04/05 12:08:12;;;;;;;2.70;1.10;;;20.80;51.70;;;;;;5092974;28;20043;-70
2022/04/05 12:10:39;;;;;;;1.50;0.90;;;20.80;51.70;;;;;;5088992;28;20859;-67
2022/04/05 12:13:05;;;;;;;1.57;0.80;;;20.80;51.70;;;;;;5089479;28;20043;-67
2022/04/05 12:15:33;;;;;;;1.65;0.90;;;20.80;51.60;;;;;;5093255;28;20052;-71
2022/04/05 12:18:18;;;;;;;2.13;1.00;;;20.80;51.50;;;;;;5092483;28;20040;-71
2022/04/05 12:20:58;;;;;;;3.05;1.08;;;20.80;51.40;;;;;;5089875;28;20044;-70
2022/04/05 12:23:29;;;;;;;1.75;1.10;;;20.70;51.30;;;;;;5092705;28;20040;-71
2022/04/05 12:26:13;;;;;;;3.83;1.00;;;20.80;51.40;;;;;;5092484;28;20047;-67
2022/04/05 12:28:42;;;;;;;2.50;1.00;;;20.70;51.30;;;;;;5091347;28;20096;-68
2022/04/05 12:31:10;;;;;;;1.80;0.88;;;20.70;51.30;;;;;;5090509;28;20119;-69
2022/04/05 12:33:38;;;;;;;3.28;1.00;;;20.70;51.40;;;;;;5074313;28;20097;-68
2022/04/05 12:36:05;;;;;;;3.50;0.80;;;20.80;51.50;;;;;;5091450;28;20036;-68
2022/04/05 12:38:31;;;;;;;4.10;0.90;;;20.70;51.50;;;;;;5091802;28;20293;-68
2022/04/05 12:40:57;;;;;;;1.23;0.68;;;20.70;51.50;;;;;;5090085;28;20078;-68
2022/04/05 12:43:23;;;;;;;2.33;1.02;;;20.70;51.50;;;;;;5092144;28;20107;-68
2022/04/05 12:45:50;;;;;;;1.60;0.90;;;20.70;51.60;;;;;;5073577;28;20565;-68
2022/04/05 12:48:18;;;;;;;1.50;1.02;;;20.70;51.70;;;;;;5092426;28;20067;-68
2022/04/05 12:50:46;;;;;;;1.40;0.80;;;20.70;51.70;;;;;;5074908;28;20581;-67
2022/04/05 12:53:21;;;;;;;2.53;1.00;;;20.70;51.70;;;;;;5091609;28;20051;-68
2022/04/05 12:56:08;;;;;;;2.42;0.82;;;20.70;51.70;;;;;;5089817;28;20040;-71